sensor_id;sensor_type;location;lat;lon;timestamp;P1;durP1;ratioP1;P2;durP2;ratioP2
35606;SDS011;21729;58.392;15.656;2023-03-01T00:01:39;1.57;;;1.00;;
35606;SDS011;21729;58.392;15.656;2023-03-01T00:04:06;3.15;;;1.00;;
35606;SDS011;21729;58.392;15.656;2023-03-01T00:06:34;2.00;;;0.90;;
35606;SDS011;21729;58.392;15.656;2023-03-01T00:09:02;2.00;;;1.00;;
35606;SDS011;21729;58.392;15.656;2023-03-01T00:11:30;1.13;;;0.90;;
35606;SDS011;21729;58.392;15.656;2023-03-01T00:13:59;1.17;;;0.95;;
35606;SDS011;21729;58.392;15.656;2023-03-01T00:16:31;1.30;;;1.10;;
35606;SDS011;21729;58.392;15.656;2023-03-01T00:18:59;1.08;;;0.90;;
35606;SDS011;21729;58.392;15.656;2023-03-01T00:21:26;1.13;;;1.02;;
35606;SDS011;21729;58.392;15.656;2023-03-01T00:23:56;1.10;;;0.98;;
35606;SDS011;21729;58.392;15.656;2023-03-01T00:26:24;1.42;;;0.90;;
35606;SDS011;21729;58.392;15.656;2023-03-01T00:28:52;1.73;;;1.02;;
35606;SDS011;21729;58.392;15.656;2023-03-01T00:31:21;1.10;;;1.00;;
35606;SDS011;21729;58.392;15.656;2023-03-01T00:33:52;1.40;;;1.07;;
35606;SDS011;21729;58.392;15.656;2023-03-01T00:36:22;1.17;;;0.95;;
35606;SDS011;21729;58.392;15.656;2023-03-01T00:38:50;2.40;;;0.90;;
35606;SDS011;21729;58.392;15.656;2023-03-01T00:41:19;1.55;;;1.00;;
35606;SDS011;21729;58.392;15.656;2023-03-01T00:43:51;1.23;;;1.00;;
35606;SDS011;21729;58.392;15.656;2023-03-01T00:46:20;1.10;;;0.85;;
35606;SDS011;21729;58.392;15.656;2023-03-01T00:48:48;0.90;;;0.90;;
35606;SDS011;21729;58.392;15.656;2023-03-01T00:51:16;1.15;;;0.80;;
35606;SDS011;21729;58.392;15.656;2023-03-01T00:53:45;1.45;;;1.00;;
35606;SDS011;21729;58.392;15.656;2023-03-01T00:56:14;1.33;;;0.95;;
35606;SDS011;21729;58.392;15.656;2023-03-01T00:58:42;1.83;;;0.90;;
35606;SDS011;21729;58.392;15.656;2023-03-01T01:01:10;1.10;;;0.90;;
35606;SDS011;21729;58.392;15.656;2023-03-01T01:03:44;1.67;;;1.00;;
35606;SDS011;21729;58.392;15.656;2023-03-01T01:06:15;1.58;;;0.90;;
35606;SDS011;21729;58.392;15.656;2023-03-01T01:08:44;1.20;;;1.00;;
35606;SDS011;21729;58.392;15.656;2023-03-01T01:11:12;1.30;;;0.90;;
35606;SDS011;21729;58.392;15.656;2023-03-01T01:13:39;1.20;;;0.90;;
35606;SDS011;21729;58.392;15.656;2023-03-01T01:16:08;0.80;;;0.80;;
35606;SDS011;21729;58.392;15.656;2023-03-01T01:18:35;1.25;;;0.80;;
35606;SDS011;21729;58.392;15.656;2023-03-01T01:21:06;1.23;;;0.93;;
35606;SDS011;21729;58.392;15.656;2023-03-01T01:23:33;0.75;;;0.75;;
35606;SDS011;21729;58.392;15.656;2023-03-01T01:26:04;0.75;;;0.75;;
35606;SDS011;21729;58.392;15.656;2023-03-01T01:28:33;0.70;;;0.70;;
35606;SDS011;21729;58.392;15.656;2023-03-01T01:31:00;0.70;;;0.70;;
35606;SDS011;21729;58.392;15.656;2023-03-01T01:33:28;0.80;;;0.80;;
35606;SDS011;21729;58.392;15.656;2023-03-01T01:35:55;1.35;;;0.60;;
35606;SDS011;21729;58.392;15.656;2023-03-01T01:38:23;0.60;;;0.60;;
35606;SDS011;21729;58.392;15.656;2023-03-01T01:40:50;0.80;;;0.80;;
35606;SDS011;21729;58.392;15.656;2023-03-01T01:43:19;1.02;;;0.70;;
35606;SDS011;21729;58.392;15.656;2023-03-01T01:45:48;3.20;;;0.75;;
35606;SDS011;21729;58.392;15.656;2023-03-01T01:48:16;0.77;;;0.60;;
35606;SDS011;21729;58.392;15.656;2023-03-01T01:50:49;0.75;;;0.65;;
35606;SDS011;21729;58.392;15.656;2023-03-01T01:53:21;1.27;;;0.80;;
35606;SDS011;21729;58.392;15.656;2023-03-01T01:55:51;1.00;;;0.70;;
35606;SDS011;21729;58.392;15.656;2023-03-01T01:58:22;1.30;;;0.80;;
35606;SDS011;21729;58.392;15.656;2023-03-01T02:00:52;0.95;;;0.73;;
35606;SDS011;21729;58.392;15.656;2023-03-01T02:03:20;0.73;;;0.60;;
35606;SDS011;21729;58.392;15.656;2023-03-01T02:05:57;0.80;;;0.70;;
35606;SDS011;21729;58.392;15.656;2023-03-01T02:08:30;0.77;;;0.70;;
35606;SDS011;21729;58.392;15.656;2023-03-01T02:10:59;0.60;;;0.60;;
35606;SDS011;21729;58.392;15.656;2023-03-01T02:13:29;1.58;;;0.80;;
35606;SDS011;21729;58.392;15.656;2023-03-01T02:15:57;0.85;;;0.57;;
35606;SDS011;21729;58.392;15.656;2023-03-01T02:18:25;1.20;;;0.80;;
35606;SDS011;21729;58.392;15.656;2023-03-01T02:20:58;2.08;;;0.90;;
35606;SDS011;21729;58.392;15.656;2023-03-01T02:23:31;1.20;;;0.80;;
35606;SDS011;21729;58.392;15.656;2023-03-01T02:26:02;0.50;;;0.50;;
35606;SDS011;21729;58.392;15.656;2023-03-01T02:28:38;1.20;;;0.70;;
35606;SDS011;21729;58.392;15.656;2023-03-01T02:31:07;1.63;;;0.70;;
35606;SDS011;21729;58.392;15.656;2023-03-01T02:33:53;1.77;;;0.90;;
35606;SDS011;21729;58.392;15.656;2023-03-01T02:36:23;0.85;;;0.82;;
35606;SDS011;21729;58.392;15.656;2023-03-01T02:38:54;0.97;;;0.87;;
35606;SDS011;21729;58.392;15.656;2023-03-01T02:41:24;0.93;;;0.82;;
35606;SDS011;21729;58.392;15.656;2023-03-01T02:43:55;1.40;;;0.90;;
35606;SDS011;21729;58.392;15.656;2023-03-01T02:46:24;1.90;;;0.70;;
35606;SDS011;21729;58.392;15.656;2023-03-01T02:48:52;0.70;;;0.70;;
35606;SDS011;21729;58.392;15.656;2023-03-01T02:51:31;1.00;;;0.70;;
35606;SDS011;21729;58.392;15.656;2023-03-01T02:54:14;1.00;;;0.70;;
35606;SDS011;21729;58.392;15.656;2023-03-01T02:56:49;0.70;;;0.70;;
35606;SDS011;21729;58.392;15.656;2023-03-01T02:59:19;1.17;;;0.75;;
35606;SDS011;21729;58.392;15.656;2023-03-01T03:01:47;0.70;;;0.70;;
35606;SDS011;21729;58.392;15.656;2023-03-01T03:04:15;0.95;;;0.80;;
35606;SDS011;21729;58.392;15.656;2023-03-01T03:06:46;1.00;;;0.80;;
35606;SDS011;21729;58.392;15.656;2023-03-01T03:09:14;1.65;;;0.75;;
35606;SDS011;21729;58.392;15.656;2023-03-01T03:11:43;0.82;;;0.65;;
35606;SDS011;21729;58.392;15.656;2023-03-01T03:14:11;0.70;;;0.70;;
35606;SDS011;21729;58.392;15.656;2023-03-01T03:16:41;2.03;;;0.95;;
35606;SDS011;21729;58.392;15.656;2023-03-01T03:19:10;0.95;;;0.70;;
35606;SDS011;21729;58.392;15.656;2023-03-01T03:21:37;1.08;;;0.80;;
35606;SDS011;21729;58.392;15.656;2023-03-01T03:24:04;1.00;;;0.80;;
35606;SDS011;21729;58.392;15.656;2023-03-01T03:26:32;1.33;;;0.70;;
35606;SDS011;21729;58.392;15.656;2023-03-01T03:28:59;1.23;;;0.60;;
35606;SDS011;21729;58.392;15.656;2023-03-01T03:31:26;1.05;;;0.70;;
35606;SDS011;21729;58.392;15.656;2023-03-01T03:33:55;0.75;;;0.70;;
35606;SDS011;21729;58.392;15.656;2023-03-01T03:36:24;0.82;;;0.65;;
35606;SDS011;21729;58.392;15.656;2023-03-01T03:38:51;0.80;;;0.65;;
35606;SDS011;21729;58.392;15.656;2023-03-01T03:41:18;1.58;;;0.73;;
35606;SDS011;21729;58.392;15.656;2023-03-01T03:43:45;1.80;;;0.80;;
35606;SDS011;21729;58.392;15.656;2023-03-01T03:46:13;1.25;;;0.73;;
35606;SDS011;21729;58.392;15.656;2023-03-01T03:48:43;1.40;;;0.80;;
35606;SDS011;21729;58.392;15.656;2023-03-01T03:51:12;0.85;;;0.65;;
35606;SDS011;21729;58.392;15.656;2023-03-01T03:53:41;1.10;;;0.80;;
35606;SDS011;21729;58.392;15.656;2023-03-01T03:56:08;1.20;;;0.70;;
35606;SDS011;21729;58.392;15.656;2023-03-01T03:58:36;1.05;;;0.70;;
35606;SDS011;21729;58.392;15.656;2023-03-01T04:01:04;1.90;;;0.50;;
35606;SDS011;21729;58.392;15.656;2023-03-01T04:03:31;1.10;;;0.70;;
35606;SDS011;21729;58.392;15.656;2023-03-01T04:06:00;1.13;;;0.70;;
35606;SDS011;21729;58.392;15.656;2023-03-01T04:08:29;2.85;;;0.77;;
35606;SDS011;21729;58.392;15.656;2023-03-01T04:10:57;0.93;;;0.57;;
35606;SDS011;21729;58.392;15.656;2023-03-01T04:13:46;0.70;;;0.70;;
35606;SDS011;21729;58.392;15.656;2023-03-01T04:16:13;0.80;;;0.60;;
35606;SDS011;21729;58.392;15.656;2023-03-01T04:18:40;1.13;;;0.70;;
35606;SDS011;21729;58.392;15.656;2023-03-01T04:21:08;1.38;;;0.93;;
35606;SDS011;21729;58.392;15.656;2023-03-01T04:23:37;0.70;;;0.70;;
35606;SDS011;21729;58.392;15.656;2023-03-01T04:26:06;0.70;;;0.70;;
35606;SDS011;21729;58.392;15.656;2023-03-01T04:28:34;1.10;;;0.70;;
35606;SDS011;21729;58.392;15.656;2023-03-01T04:31:04;1.55;;;0.80;;
35606;SDS011;21729;58.392;15.656;2023-03-01T04:33:38;0.80;;;0.70;;
35606;SDS011;21729;58.392;15.656;2023-03-01T04:36:07;1.70;;;0.80;;
35606;SDS011;21729;58.392;15.656;2023-03-01T04:38:35;3.08;;;0.70;;
35606;SDS011;21729;58.392;15.656;2023-03-01T04:41:05;1.02;;;0.60;;
35606;SDS011;21729;58.392;15.656;2023-03-01T04:43:33;1.00;;;0.70;;
35606;SDS011;21729;58.392;15.656;2023-03-01T04:46:01;0.93;;;0.73;;
35606;SDS011;21729;58.392;15.656;2023-03-01T04:48:29;1.52;;;0.70;;
35606;SDS011;21729;58.392;15.656;2023-03-01T04:50:57;1.30;;;0.65;;
35606;SDS011;21729;58.392;15.656;2023-03-01T04:53:25;0.77;;;0.63;;
35606;SDS011;21729;58.392;15.656;2023-03-01T04:55:53;0.57;;;0.50;;
35606;SDS011;21729;58.392;15.656;2023-03-01T04:58:22;0.90;;;0.70;;
35606;SDS011;21729;58.392;15.656;2023-03-01T05:00:49;1.65;;;0.82;;
35606;SDS011;21729;58.392;15.656;2023-03-01T05:03:16;0.60;;;0.60;;
35606;SDS011;21729;58.392;15.656;2023-03-01T05:05:44;0.50;;;0.50;;
35606;SDS011;21729;58.392;15.656;2023-03-01T05:08:13;1.10;;;0.52;;
35606;SDS011;21729;58.392;15.656;2023-03-01T05:10:43;0.82;;;0.60;;
35606;SDS011;21729;58.392;15.656;2023-03-01T05:13:12;0.60;;;0.60;;
35606;SDS011;21729;58.392;15.656;2023-03-01T05:15:47;1.10;;;0.60;;
35606;SDS011;21729;58.392;15.656;2023-03-01T05:18:19;1.10;;;0.55;;
35606;SDS011;21729;58.392;15.656;2023-03-01T05:20:46;1.90;;;0.65;;
35606;SDS011;21729;58.392;15.656;2023-03-01T05:23:13;0.57;;;0.50;;
35606;SDS011;21729;58.392;15.656;2023-03-01T05:25:41;1.90;;;0.63;;
35606;SDS011;21729;58.392;15.656;2023-03-01T05:28:09;1.20;;;0.70;;
35606;SDS011;21729;58.392;15.656;2023-03-01T05:30:37;0.98;;;0.60;;
35606;SDS011;21729;58.392;15.656;2023-03-01T05:33:06;0.77;;;0.60;;
35606;SDS011;21729;58.392;15.656;2023-03-01T05:35:38;1.10;;;0.80;;
35606;SDS011;21729;58.392;15.656;2023-03-01T05:38:08;1.40;;;0.70;;
35606;SDS011;21729;58.392;15.656;2023-03-01T05:40:38;1.10;;;0.70;;
35606;SDS011;21729;58.392;15.656;2023-03-01T05:43:06;1.20;;;0.52;;
35606;SDS011;21729;58.392;15.656;2023-03-01T05:45:35;1.30;;;0.70;;
35606;SDS011;21729;58.392;15.656;2023-03-01T05:48:03;2.42;;;0.80;;
35606;SDS011;21729;58.392;15.656;2023-03-01T05:50:34;1.70;;;0.70;;
35606;SDS011;21729;58.392;15.656;2023-03-01T05:53:02;1.45;;;0.60;;
35606;SDS011;21729;58.392;15.656;2023-03-01T05:55:31;1.83;;;0.80;;
35606;SDS011;21729;58.392;15.656;2023-03-01T05:57:59;1.02;;;0.70;;
35606;SDS011;21729;58.392;15.656;2023-03-01T06:00:27;0.70;;;0.70;;
35606;SDS011;21729;58.392;15.656;2023-03-01T06:02:54;1.02;;;0.70;;
35606;SDS011;21729;58.392;15.656;2023-03-01T06:05:23;1.15;;;0.80;;
35606;SDS011;21729;58.392;15.656;2023-03-01T06:07:52;0.80;;;0.68;;
35606;SDS011;21729;58.392;15.656;2023-03-01T06:10:20;1.20;;;0.68;;
35606;SDS011;21729;58.392;15.656;2023-03-01T06:12:48;3.40;;;0.88;;
35606;SDS011;21729;58.392;15.656;2023-03-01T06:15:16;0.80;;;0.70;;
35606;SDS011;21729;58.392;15.656;2023-03-01T06:17:44;1.42;;;0.63;;
35606;SDS011;21729;58.392;15.656;2023-03-01T06:20:13;2.00;;;0.90;;
35606;SDS011;21729;58.392;15.656;2023-03-01T06:22:41;0.93;;;0.70;;
35606;SDS011;21729;58.392;15.656;2023-03-01T06:25:10;1.20;;;0.70;;
35606;SDS011;21729;58.392;15.656;2023-03-01T06:27:39;0.90;;;0.75;;
35606;SDS011;21729;58.392;15.656;2023-03-01T06:30:07;0.85;;;0.60;;
35606;SDS011;21729;58.392;15.656;2023-03-01T06:32:35;1.80;;;0.80;;
35606;SDS011;21729;58.392;15.656;2023-03-01T06:35:07;2.78;;;0.80;;
35606;SDS011;21729;58.392;15.656;2023-03-01T06:37:35;0.90;;;0.80;;
35606;SDS011;21729;58.392;15.656;2023-03-01T06:40:02;1.45;;;0.60;;
35606;SDS011;21729;58.392;15.656;2023-03-01T06:42:34;0.73;;;0.73;;
35606;SDS011;21729;58.392;15.656;2023-03-01T06:45:01;1.10;;;0.77;;
35606;SDS011;21729;58.392;15.656;2023-03-01T06:47:29;0.98;;;0.70;;
35606;SDS011;21729;58.392;15.656;2023-03-01T06:49:56;1.17;;;0.90;;
35606;SDS011;21729;58.392;15.656;2023-03-01T06:52:23;0.85;;;0.73;;
35606;SDS011;21729;58.392;15.656;2023-03-01T06:54:50;1.90;;;0.88;;
35606;SDS011;21729;58.392;15.656;2023-03-01T06:57:18;1.70;;;1.10;;
35606;SDS011;21729;58.392;15.656;2023-03-01T06:59:47;2.65;;;0.80;;
35606;SDS011;21729;58.392;15.656;2023-03-01T07:02:14;1.08;;;0.77;;
35606;SDS011;21729;58.392;15.656;2023-03-01T07:04:42;1.70;;;1.00;;
35606;SDS011;21729;58.392;15.656;2023-03-01T07:07:09;1.98;;;0.75;;
35606;SDS011;21729;58.392;15.656;2023-03-01T07:09:37;1.02;;;0.65;;
35606;SDS011;21729;58.392;15.656;2023-03-01T07:12:04;1.00;;;0.80;;
35606;SDS011;21729;58.392;15.656;2023-03-01T07:14:31;3.05;;;0.60;;
35606;SDS011;21729;58.392;15.656;2023-03-01T07:17:00;2.63;;;0.70;;
35606;SDS011;21729;58.392;15.656;2023-03-01T07:19:27;2.77;;;0.80;;
35606;SDS011;21729;58.392;15.656;2023-03-01T07:21:54;2.58;;;0.77;;
35606;SDS011;21729;58.392;15.656;2023-03-01T07:24:22;1.70;;;0.70;;
35606;SDS011;21729;58.392;15.656;2023-03-01T07:26:49;0.80;;;0.77;;
35606;SDS011;21729;58.392;15.656;2023-03-01T07:29:16;0.90;;;0.77;;
35606;SDS011;21729;58.392;15.656;2023-03-01T07:31:44;4.20;;;0.80;;
35606;SDS011;21729;58.392;15.656;2023-03-01T07:34:12;1.75;;;0.80;;
35606;SDS011;21729;58.392;15.656;2023-03-01T07:36:39;1.50;;;0.80;;
35606;SDS011;21729;58.392;15.656;2023-03-01T07:39:08;2.20;;;0.63;;
35606;SDS011;21729;58.392;15.656;2023-03-01T07:41:36;2.42;;;0.70;;
35606;SDS011;21729;58.392;15.656;2023-03-01T07:44:03;1.58;;;0.82;;
35606;SDS011;21729;58.392;15.656;2023-03-01T07:46:30;1.55;;;0.70;;
35606;SDS011;21729;58.392;15.656;2023-03-01T07:48:57;1.15;;;0.60;;
35606;SDS011;21729;58.392;15.656;2023-03-01T07:51:26;0.70;;;0.60;;
35606;SDS011;21729;58.392;15.656;2023-03-01T07:53:53;1.10;;;0.73;;
35606;SDS011;21729;58.392;15.656;2023-03-01T07:56:21;1.20;;;0.70;;
35606;SDS011;21729;58.392;15.656;2023-03-01T07:58:48;0.82;;;0.50;;
35606;SDS011;21729;58.392;15.656;2023-03-01T08:01:16;1.33;;;0.60;;
35606;SDS011;21729;58.392;15.656;2023-03-01T08:03:44;1.35;;;0.50;;
35606;SDS011;21729;58.392;15.656;2023-03-01T08:06:13;0.70;;;0.50;;
35606;SDS011;21729;58.392;15.656;2023-03-01T08:08:42;0.83;;;0.50;;
35606;SDS011;21729;58.392;15.656;2023-03-01T08:11:10;0.77;;;0.50;;
35606;SDS011;21729;58.392;15.656;2023-03-01T08:13:38;1.15;;;0.50;;
35606;SDS011;21729;58.392;15.656;2023-03-01T08:16:06;0.95;;;0.60;;
35606;SDS011;21729;58.392;15.656;2023-03-01T08:18:34;0.50;;;0.47;;
35606;SDS011;21729;58.392;15.656;2023-03-01T08:21:02;1.60;;;0.55;;
35606;SDS011;21729;58.392;15.656;2023-03-01T08:23:30;1.30;;;0.60;;
35606;SDS011;21729;58.392;15.656;2023-03-01T08:26:08;1.20;;;0.38;;
35606;SDS011;21729;58.392;15.656;2023-03-01T08:28:37;0.95;;;0.38;;
35606;SDS011;21729;58.392;15.656;2023-03-01T08:31:12;0.73;;;0.38;;
35606;SDS011;21729;58.392;15.656;2023-03-01T08:33:40;1.20;;;0.40;;
35606;SDS011;21729;58.392;15.656;2023-03-01T08:36:08;0.80;;;0.30;;
35606;SDS011;21729;58.392;15.656;2023-03-01T08:38:35;0.85;;;0.40;;
35606;SDS011;21729;58.392;15.656;2023-03-01T08:41:02;2.05;;;0.40;;
35606;SDS011;21729;58.392;15.656;2023-03-01T08:43:32;0.40;;;0.20;;
35606;SDS011;21729;58.392;15.656;2023-03-01T08:45:59;0.87;;;0.30;;
35606;SDS011;21729;58.392;15.656;2023-03-01T08:48:27;0.70;;;0.20;;
35606;SDS011;21729;58.392;15.656;2023-03-01T08:50:54;1.05;;;0.30;;
35606;SDS011;21729;58.392;15.656;2023-03-01T08:53:21;0.50;;;0.30;;
35606;SDS011;21729;58.392;15.656;2023-03-01T08:55:48;1.38;;;0.45;;
35606;SDS011;21729;58.392;15.656;2023-03-01T08:58:15;1.05;;;0.30;;
35606;SDS011;21729;58.392;15.656;2023-03-01T09:00:44;0.68;;;0.20;;
35606;SDS011;21729;58.392;15.656;2023-03-01T09:03:11;1.52;;;0.20;;
35606;SDS011;21729;58.392;15.656;2023-03-01T09:05:38;0.30;;;0.22;;
35606;SDS011;21729;58.392;15.656;2023-03-01T09:08:05;1.50;;;0.30;;
35606;SDS011;21729;58.392;15.656;2023-03-01T09:10:36;0.50;;;0.30;;
35606;SDS011;21729;58.392;15.656;2023-03-01T09:13:04;0.95;;;0.30;;
35606;SDS011;21729;58.392;15.656;2023-03-01T09:15:31;2.08;;;0.38;;
35606;SDS011;21729;58.392;15.656;2023-03-01T09:18:00;0.82;;;0.25;;
35606;SDS011;21729;58.392;15.656;2023-03-01T09:20:27;0.80;;;0.20;;
35606;SDS011;21729;58.392;15.656;2023-03-01T09:22:54;0.15;;;0.13;;
35606;SDS011;21729;58.392;15.656;2023-03-01T09:25:21;2.03;;;0.30;;
35606;SDS011;21729;58.392;15.656;2023-03-01T09:27:50;1.00;;;0.30;;
35606;SDS011;21729;58.392;15.656;2023-03-01T09:30:17;2.80;;;0.40;;
35606;SDS011;21729;58.392;15.656;2023-03-01T09:32:45;1.48;;;0.47;;
35606;SDS011;21729;58.392;15.656;2023-03-01T09:35:13;2.22;;;0.30;;
35606;SDS011;21729;58.392;15.656;2023-03-01T09:37:41;1.00;;;0.30;;
35606;SDS011;21729;58.392;15.656;2023-03-01T09:40:11;1.08;;;0.30;;
35606;SDS011;21729;58.392;15.656;2023-03-01T09:42:45;0.50;;;0.10;;
35606;SDS011;21729;58.392;15.656;2023-03-01T09:45:20;1.70;;;0.40;;
35606;SDS011;21729;58.392;15.656;2023-03-01T09:47:54;1.58;;;0.40;;
35606;SDS011;21729;58.392;15.656;2023-03-01T09:50:24;0.90;;;0.25;;
35606;SDS011;21729;58.392;15.656;2023-03-01T09:52:59;0.90;;;0.30;;
35606;SDS011;21729;58.392;15.656;2023-03-01T09:55:29;0.50;;;0.25;;
35606;SDS011;21729;58.392;15.656;2023-03-01T09:58:00;1.02;;;0.30;;
35606;SDS011;21729;58.392;15.656;2023-03-01T10:00:39;0.60;;;0.32;;
35606;SDS011;21729;58.392;15.656;2023-03-01T10:03:12;1.95;;;0.50;;
35606;SDS011;21729;58.392;15.656;2023-03-01T10:05:48;0.75;;;0.25;;
35606;SDS011;21729;58.392;15.656;2023-03-01T10:08:29;0.60;;;0.30;;
35606;SDS011;21729;58.392;15.656;2023-03-01T10:11:04;1.40;;;0.40;;
35606;SDS011;21729;58.392;15.656;2023-03-01T10:13:43;4.35;;;0.40;;
35606;SDS011;21729;58.392;15.656;2023-03-01T10:16:19;2.40;;;0.30;;
35606;SDS011;21729;58.392;15.656;2023-03-01T10:18:52;3.28;;;0.30;;
35606;SDS011;21729;58.392;15.656;2023-03-01T10:21:25;3.25;;;0.40;;
35606;SDS011;21729;58.392;15.656;2023-03-01T10:23:54;1.75;;;0.30;;
35606;SDS011;21729;58.392;15.656;2023-03-01T10:26:33;2.30;;;0.40;;
35606;SDS011;21729;58.392;15.656;2023-03-01T10:29:10;3.57;;;0.30;;
35606;SDS011;21729;58.392;15.656;2023-03-01T10:31:39;1.58;;;0.40;;
35606;SDS011;21729;58.392;15.656;2023-03-01T10:34:11;2.70;;;0.33;;
35606;SDS011;21729;58.392;15.656;2023-03-01T10:36:41;1.95;;;0.75;;
35606;SDS011;21729;58.392;15.656;2023-03-01T10:39:13;3.72;;;0.40;;
35606;SDS011;21729;58.392;15.656;2023-03-01T10:41:53;2.60;;;0.55;;
35606;SDS011;21729;58.392;15.656;2023-03-01T10:44:43;1.17;;;0.43;;
35606;SDS011;21729;58.392;15.656;2023-03-01T10:47:15;2.67;;;0.47;;
35606;SDS011;21729;58.392;15.656;2023-03-01T10:49:56;1.02;;;0.40;;
35606;SDS011;21729;58.392;15.656;2023-03-01T10:52:31;1.80;;;0.60;;
35606;SDS011;21729;58.392;15.656;2023-03-01T10:55:02;3.63;;;0.60;;
35606;SDS011;21729;58.392;15.656;2023-03-01T10:57:44;1.98;;;0.77;;
35606;SDS011;21729;58.392;15.656;2023-03-01T11:00:18;1.10;;;0.60;;
35606;SDS011;21729;58.392;15.656;2023-03-01T11:02:49;2.73;;;0.50;;
35606;SDS011;21729;58.392;15.656;2023-03-01T11:05:21;0.90;;;0.40;;
35606;SDS011;21729;58.392;15.656;2023-03-01T11:07:52;2.30;;;0.50;;
35606;SDS011;21729;58.392;15.656;2023-03-01T11:10:22;2.40;;;0.55;;
35606;SDS011;21729;58.392;15.656;2023-03-01T11:12:51;0.50;;;0.40;;
35606;SDS011;21729;58.392;15.656;2023-03-01T11:15:23;5.00;;;0.50;;
35606;SDS011;21729;58.392;15.656;2023-03-01T11:17:52;0.85;;;0.30;;
35606;SDS011;21729;58.392;15.656;2023-03-01T11:20:24;3.00;;;0.50;;
35606;SDS011;21729;58.392;15.656;2023-03-01T11:22:55;0.60;;;0.30;;
35606;SDS011;21729;58.392;15.656;2023-03-01T11:25:26;1.00;;;0.38;;
35606;SDS011;21729;58.392;15.656;2023-03-01T11:27:56;1.00;;;0.40;;
35606;SDS011;21729;58.392;15.656;2023-03-01T11:30:28;1.90;;;0.50;;
35606;SDS011;21729;58.392;15.656;2023-03-01T11:33:05;1.20;;;0.30;;
35606;SDS011;21729;58.392;15.656;2023-03-01T11:35:44;0.88;;;0.40;;
35606;SDS011;21729;58.392;15.656;2023-03-01T11:38:19;0.88;;;0.45;;
35606;SDS011;21729;58.392;15.656;2023-03-01T11:40:50;2.50;;;0.40;;
35606;SDS011;21729;58.392;15.656;2023-03-01T11:43:26;0.65;;;0.32;;
35606;SDS011;21729;58.392;15.656;2023-03-01T11:48:58;0.30;;;0.30;;
35606;SDS011;21729;58.392;15.656;2023-03-01T11:51:38;0.68;;;0.30;;
35606;SDS011;21729;58.392;15.656;2023-03-01T11:57:01;2.10;;;0.50;;
35606;SDS011;21729;58.392;15.656;2023-03-01T11:59:39;2.30;;;0.32;;
35606;SDS011;21729;58.392;15.656;2023-03-01T12:05:43;0.38;;;0.25;;
35606;SDS011;21729;58.392;15.656;2023-03-01T12:08:31;1.40;;;0.25;;
35606;SDS011;21729;58.392;15.656;2023-03-01T12:11:06;0.20;;;0.15;;
35606;SDS011;21729;58.392;15.656;2023-03-01T12:13:58;2.75;;;0.40;;
35606;SDS011;21729;58.392;15.656;2023-03-01T12:16:50;1.55;;;0.60;;
35606;SDS011;21729;58.392;15.656;2023-03-01T12:19:38;0.82;;;0.40;;
35606;SDS011;21729;58.392;15.656;2023-03-01T12:22:29;0.60;;;0.30;;
35606;SDS011;21729;58.392;15.656;2023-03-01T12:25:10;1.15;;;0.40;;
35606;SDS011;21729;58.392;15.656;2023-03-01T12:27:52;0.95;;;0.22;;
35606;SDS011;21729;58.392;15.656;2023-03-01T12:30:39;0.80;;;0.20;;
35606;SDS011;21729;58.392;15.656;2023-03-01T12:33:19;1.90;;;0.50;;
35606;SDS011;21729;58.392;15.656;2023-03-01T12:38:59;2.38;;;0.40;;
35606;SDS011;21729;58.392;15.656;2023-03-01T12:41:43;2.00;;;0.38;;
35606;SDS011;21729;58.392;15.656;2023-03-01T12:44:27;0.75;;;0.30;;
35606;SDS011;21729;58.392;15.656;2023-03-01T12:47:18;0.70;;;0.25;;
35606;SDS011;21729;58.392;15.656;2023-03-01T12:49:54;0.97;;;0.20;;
35606;SDS011;21729;58.392;15.656;2023-03-01T12:52:27;2.67;;;0.30;;
35606;SDS011;21729;58.392;15.656;2023-03-01T12:55:02;1.08;;;0.30;;
35606;SDS011;21729;58.392;15.656;2023-03-01T12:57:42;0.57;;;0.30;;
35606;SDS011;21729;58.392;15.656;2023-03-01T13:00:22;2.15;;;0.40;;
35606;SDS011;21729;58.392;15.656;2023-03-01T13:02:55;0.90;;;0.40;;
35606;SDS011;21729;58.392;15.656;2023-03-01T13:05:29;3.10;;;0.32;;
35606;SDS011;21729;58.392;15.656;2023-03-01T13:08:05;2.22;;;0.38;;
35606;SDS011;21729;58.392;15.656;2023-03-01T13:10:39;0.73;;;0.47;;
35606;SDS011;21729;58.392;15.656;2023-03-01T13:13:15;1.80;;;0.70;;
35606;SDS011;21729;58.392;15.656;2023-03-01T13:15:48;1.60;;;0.25;;
35606;SDS011;21729;58.392;15.656;2023-03-01T13:18:29;2.17;;;0.30;;
35606;SDS011;21729;58.392;15.656;2023-03-01T13:20:57;4.57;;;0.45;;
35606;SDS011;21729;58.392;15.656;2023-03-01T13:23:30;1.40;;;0.35;;
35606;SDS011;21729;58.392;15.656;2023-03-01T13:26:04;1.43;;;0.47;;
35606;SDS011;21729;58.392;15.656;2023-03-01T13:28:38;0.20;;;0.20;;
35606;SDS011;21729;58.392;15.656;2023-03-01T13:31:56;0.95;;;0.30;;
35606;SDS011;21729;58.392;15.656;2023-03-01T13:34:40;1.17;;;0.33;;
35606;SDS011;21729;58.392;15.656;2023-03-01T13:37:18;6.85;;;0.50;;
35606;SDS011;21729;58.392;15.656;2023-03-01T13:40:02;0.82;;;0.40;;
35606;SDS011;21729;58.392;15.656;2023-03-01T13:42:51;3.20;;;0.40;;
35606;SDS011;21729;58.392;15.656;2023-03-01T13:45:21;0.93;;;0.30;;
35606;SDS011;21729;58.392;15.656;2023-03-01T13:47:54;2.23;;;0.50;;
35606;SDS011;21729;58.392;15.656;2023-03-01T13:50:25;0.93;;;0.30;;
35606;SDS011;21729;58.392;15.656;2023-03-01T13:52:55;0.38;;;0.20;;
35606;SDS011;21729;58.392;15.656;2023-03-01T13:55:26;1.20;;;0.40;;
35606;SDS011;21729;58.392;15.656;2023-03-01T13:57:59;0.80;;;0.30;;
35606;SDS011;21729;58.392;15.656;2023-03-01T14:00:33;2.35;;;0.50;;
35606;SDS011;21729;58.392;15.656;2023-03-01T14:03:08;2.53;;;0.35;;
35606;SDS011;21729;58.392;15.656;2023-03-01T14:05:38;2.63;;;0.33;;
35606;SDS011;21729;58.392;15.656;2023-03-01T14:08:18;2.10;;;0.40;;
35606;SDS011;21729;58.392;15.656;2023-03-01T14:10:51;0.85;;;0.50;;
35606;SDS011;21729;58.392;15.656;2023-03-01T14:13:34;1.27;;;0.50;;
35606;SDS011;21729;58.392;15.656;2023-03-01T14:16:15;1.20;;;0.52;;
35606;SDS011;21729;58.392;15.656;2023-03-01T14:18:54;2.67;;;0.38;;
35606;SDS011;21729;58.392;15.656;2023-03-01T14:21:29;2.15;;;0.40;;
35606;SDS011;21729;58.392;15.656;2023-03-01T14:23:56;0.70;;;0.40;;
35606;SDS011;21729;58.392;15.656;2023-03-01T14:26:24;1.67;;;0.30;;
35606;SDS011;21729;58.392;15.656;2023-03-01T14:28:52;3.35;;;0.50;;
35606;SDS011;21729;58.392;15.656;2023-03-01T14:31:34;0.50;;;0.30;;
35606;SDS011;21729;58.392;15.656;2023-03-01T14:34:05;4.70;;;0.45;;
35606;SDS011;21729;58.392;15.656;2023-03-01T14:36:33;1.08;;;0.32;;
35606;SDS011;21729;58.392;15.656;2023-03-01T14:39:00;1.73;;;0.40;;
35606;SDS011;21729;58.392;15.656;2023-03-01T14:41:41;2.50;;;0.40;;
35606;SDS011;21729;58.392;15.656;2023-03-01T14:44:12;1.33;;;0.33;;
35606;SDS011;21729;58.392;15.656;2023-03-01T14:46:43;1.33;;;0.30;;
35606;SDS011;21729;58.392;15.656;2023-03-01T14:49:14;1.70;;;0.30;;
35606;SDS011;21729;58.392;15.656;2023-03-01T14:51:45;0.88;;;0.43;;
35606;SDS011;21729;58.392;15.656;2023-03-01T14:54:22;2.25;;;0.40;;
35606;SDS011;21729;58.392;15.656;2023-03-01T14:56:52;5.32;;;0.45;;
35606;SDS011;21729;58.392;15.656;2023-03-01T14:59:21;0.90;;;0.30;;
35606;SDS011;21729;58.392;15.656;2023-03-01T15:01:49;4.40;;;0.40;;
35606;SDS011;21729;58.392;15.656;2023-03-01T15:04:19;0.60;;;0.30;;
35606;SDS011;21729;58.392;15.656;2023-03-01T15:06:49;1.23;;;0.23;;
35606;SDS011;21729;58.392;15.656;2023-03-01T15:09:18;2.50;;;0.22;;